sensor_id;sensor_type;location;lat;lon;timestamp;P1;durP1;ratioP1;P2;durP2;ratioP2
58095;SDS011;43908;53.038;6.666;2022-07-17T00:00:11;6.10;;;2.05;;
58095;SDS011;43908;53.038;6.666;2022-07-17T00:02:37;3.30;;;1.90;;
58095;SDS011;43908;53.038;6.666;2022-07-17T00:05:03;3.45;;;1.60;;
58095;SDS011;43908;53.038;6.666;2022-07-17T00:07:29;3.78;;;2.08;;
58095;SDS011;43908;53.038;6.666;2022-07-17T00:09:55;3.90;;;1.95;;
58095;SDS011;43908;53.038;6.666;2022-07-17T00:12:21;4.50;;;1.65;;
58095;SDS011;43908;53.038;6.666;2022-07-17T00:14:47;4.20;;;1.70;;
58095;SDS011;43908;53.038;6.666;2022-07-17T00:17:12;6.32;;;2.00;;
58095;SDS011;43908;53.038;6.666;2022-07-17T00:19:39;4.07;;;2.20;;
58095;SDS011;43908;53.038;6.666;2022-07-17T00:22:05;3.05;;;2.00;;
58095;SDS011;43908;53.038;6.666;2022-07-17T00:24:30;4.60;;;2.13;;
58095;SDS011;43908;53.038;6.666;2022-07-17T00:26:56;4.43;;;2.15;;
58095;SDS011;43908;53.038;6.666;2022-07-17T00:29:21;4.72;;;2.00;;
58095;SDS011;43908;53.038;6.666;2022-07-17T00:31:47;3.40;;;2.17;;
58095;SDS011;43908;53.038;6.666;2022-07-17T00:34:13;3.20;;;2.13;;
58095;SDS011;43908;53.038;6.666;2022-07-17T00:36:38;3.17;;;1.98;;
58095;SDS011;43908;53.038;6.666;2022-07-17T00:39:04;4.22;;;2.13;;
58095;SDS011;43908;53.038;6.666;2022-07-17T00:41:30;2.90;;;1.80;;
58095;SDS011;43908;53.038;6.666;2022-07-17T00:44:02;3.42;;;2.13;;
58095;SDS011;43908;53.038;6.666;2022-07-17T00:46:32;5.35;;;2.65;;
58095;SDS011;43908;53.038;6.666;2022-07-17T00:48:58;4.03;;;2.35;;
58095;SDS011;43908;53.038;6.666;2022-07-17T00:51:23;4.68;;;1.90;;
58095;SDS011;43908;53.038;6.666;2022-07-17T00:53:49;2.58;;;1.70;;
58095;SDS011;43908;53.038;6.666;2022-07-17T00:56:16;5.00;;;2.83;;
58095;SDS011;43908;53.038;6.666;2022-07-17T00:58:42;4.68;;;2.10;;
58095;SDS011;43908;53.038;6.666;2022-07-17T01:01:09;4.15;;;1.92;;
58095;SDS011;43908;53.038;6.666;2022-07-17T01:03:35;3.20;;;1.98;;
58095;SDS011;43908;53.038;6.666;2022-07-17T01:06:00;2.40;;;1.70;;
58095;SDS011;43908;53.038;6.666;2022-07-17T01:08:27;2.38;;;1.63;;
58095;SDS011;43908;53.038;6.666;2022-07-17T01:10:53;2.55;;;1.83;;
58095;SDS011;43908;53.038;6.666;2022-07-17T01:13:19;4.30;;;1.92;;
58095;SDS011;43908;53.038;6.666;2022-07-17T01:15:45;4.05;;;2.10;;
58095;SDS011;43908;53.038;6.666;2022-07-17T01:18:12;2.17;;;1.80;;
58095;SDS011;43908;53.038;6.666;2022-07-17T01:20:39;3.20;;;1.70;;
58095;SDS011;43908;53.038;6.666;2022-07-17T01:23:07;2.67;;;2.05;;
58095;SDS011;43908;53.038;6.666;2022-07-17T01:25:33;2.63;;;1.95;;
58095;SDS011;43908;53.038;6.666;2022-07-17T01:28:00;2.88;;;1.95;;
58095;SDS011;43908;53.038;6.666;2022-07-17T01:30:26;4.18;;;2.05;;
58095;SDS011;43908;53.038;6.666;2022-07-17T01:32:52;5.53;;;2.30;;
58095;SDS011;43908;53.038;6.666;2022-07-17T01:35:18;5.35;;;2.15;;
58095;SDS011;43908;53.038;6.666;2022-07-17T01:37:44;2.35;;;2.15;;
58095;SDS011;43908;53.038;6.666;2022-07-17T01:40:11;4.57;;;2.20;;
58095;SDS011;43908;53.038;6.666;2022-07-17T01:42:39;4.78;;;2.70;;
58095;SDS011;43908;53.038;6.666;2022-07-17T01:45:07;2.83;;;2.00;;
58095;SDS011;43908;53.038;6.666;2022-07-17T01:47:33;4.07;;;1.90;;
58095;SDS011;43908;53.038;6.666;2022-07-17T01:49:59;3.15;;;2.13;;
58095;SDS011;43908;53.038;6.666;2022-07-17T01:52:26;3.60;;;2.10;;
58095;SDS011;43908;53.038;6.666;2022-07-17T01:54:52;3.15;;;1.80;;
58095;SDS011;43908;53.038;6.666;2022-07-17T01:57:18;3.45;;;2.05;;
58095;SDS011;43908;53.038;6.666;2022-07-17T01:59:44;3.17;;;2.50;;
58095;SDS011;43908;53.038;6.666;2022-07-17T02:02:10;3.00;;;2.17;;
58095;SDS011;43908;53.038;6.666;2022-07-17T02:04:37;3.20;;;2.00;;
58095;SDS011;43908;53.038;6.666;2022-07-17T02:07:03;3.65;;;2.13;;
58095;SDS011;43908;53.038;6.666;2022-07-17T02:09:30;3.50;;;2.10;;
58095;SDS011;43908;53.038;6.666;2022-07-17T02:11:56;3.00;;;1.90;;
58095;SDS011;43908;53.038;6.666;2022-07-17T02:14:21;2.28;;;1.60;;
58095;SDS011;43908;53.038;6.666;2022-07-17T02:16:47;2.30;;;1.60;;
58095;SDS011;43908;53.038;6.666;2022-07-17T02:19:13;2.55;;;1.50;;
58095;SDS011;43908;53.038;6.666;2022-07-17T02:21:39;3.53;;;1.70;;
58095;SDS011;43908;53.038;6.666;2022-07-17T02:24:05;3.53;;;1.77;;
58095;SDS011;43908;53.038;6.666;2022-07-17T02:26:31;2.40;;;1.55;;
58095;SDS011;43908;53.038;6.666;2022-07-17T02:28:57;3.05;;;1.40;;
58095;SDS011;43908;53.038;6.666;2022-07-17T02:31:22;3.45;;;1.63;;
58095;SDS011;43908;53.038;6.666;2022-07-17T02:33:48;2.97;;;1.52;;
58095;SDS011;43908;53.038;6.666;2022-07-17T02:36:13;3.97;;;1.67;;
58095;SDS011;43908;53.038;6.666;2022-07-17T02:38:39;3.42;;;2.00;;
58095;SDS011;43908;53.038;6.666;2022-07-17T02:41:05;2.30;;;2.10;;
58095;SDS011;43908;53.038;6.666;2022-07-17T02:43:31;3.28;;;2.13;;
58095;SDS011;43908;53.038;6.666;2022-07-17T02:45:57;2.13;;;1.90;;
58095;SDS011;43908;53.038;6.666;2022-07-17T02:48:22;3.95;;;2.20;;
58095;SDS011;43908;53.038;6.666;2022-07-17T02:50:48;4.05;;;2.40;;
58095;SDS011;43908;53.038;6.666;2022-07-17T02:53:14;3.97;;;2.63;;
58095;SDS011;43908;53.038;6.666;2022-07-17T02:55:39;2.45;;;2.17;;
58095;SDS011;43908;53.038;6.666;2022-07-17T02:58:05;2.10;;;1.92;;
58095;SDS011;43908;53.038;6.666;2022-07-17T03:00:30;2.40;;;2.20;;
58095;SDS011;43908;53.038;6.666;2022-07-17T03:02:56;1.90;;;1.80;;
58095;SDS011;43908;53.038;6.666;2022-07-17T03:05:21;4.03;;;2.40;;
58095;SDS011;43908;53.038;6.666;2022-07-17T03:07:47;3.83;;;2.47;;
58095;SDS011;43908;53.038;6.666;2022-07-17T03:10:13;3.70;;;2.63;;
58095;SDS011;43908;53.038;6.666;2022-07-17T03:12:39;4.30;;;2.63;;
58095;SDS011;43908;53.038;6.666;2022-07-17T03:15:06;3.80;;;2.90;;
58095;SDS011;43908;53.038;6.666;2022-07-17T03:17:32;4.22;;;2.55;;
58095;SDS011;43908;53.038;6.666;2022-07-17T03:19:58;2.90;;;2.60;;
58095;SDS011;43908;53.038;6.666;2022-07-17T03:22:24;3.75;;;3.05;;
58095;SDS011;43908;53.038;6.666;2022-07-17T03:24:49;4.18;;;2.67;;
58095;SDS011;43908;53.038;6.666;2022-07-17T03:27:15;4.20;;;2.75;;
58095;SDS011;43908;53.038;6.666;2022-07-17T03:29:40;4.68;;;3.15;;
58095;SDS011;43908;53.038;6.666;2022-07-17T03:32:06;3.20;;;2.60;;
58095;SDS011;43908;53.038;6.666;2022-07-17T03:34:32;3.95;;;3.20;;
58095;SDS011;43908;53.038;6.666;2022-07-17T03:36:57;3.97;;;3.17;;
58095;SDS011;43908;53.038;6.666;2022-07-17T03:39:23;6.70;;;3.28;;
58095;SDS011;43908;53.038;6.666;2022-07-17T03:41:49;6.57;;;3.17;;
58095;SDS011;43908;53.038;6.666;2022-07-17T03:44:14;4.50;;;2.95;;
58095;SDS011;43908;53.038;6.666;2022-07-17T03:46:40;2.80;;;2.60;;
58095;SDS011;43908;53.038;6.666;2022-07-17T03:49:05;4.00;;;3.08;;
58095;SDS011;43908;53.038;6.666;2022-07-17T03:51:31;3.53;;;2.83;;
58095;SDS011;43908;53.038;6.666;2022-07-17T03:53:57;5.13;;;2.97;;
58095;SDS011;43908;53.038;6.666;2022-07-17T03:56:22;5.55;;;3.38;;
58095;SDS011;43908;53.038;6.666;2022-07-17T03:58:48;3.30;;;2.97;;
58095;SDS011;43908;53.038;6.666;2022-07-17T04:01:14;3.28;;;2.88;;
58095;SDS011;43908;53.038;6.666;2022-07-17T04:03:40;4.22;;;3.40;;
58095;SDS011;43908;53.038;6.666;2022-07-17T04:06:06;6.95;;;3.17;;
58095;SDS011;43908;53.038;6.666;2022-07-17T04:08:31;3.88;;;3.10;;
58095;SDS011;43908;53.038;6.666;2022-07-17T04:10:57;3.80;;;3.30;;
58095;SDS011;43908;53.038;6.666;2022-07-17T04:13:23;5.68;;;2.90;;
58095;SDS011;43908;53.038;6.666;2022-07-17T04:15:49;4.28;;;2.80;;
58095;SDS011;43908;53.038;6.666;2022-07-17T04:18:21;5.72;;;2.63;;
58095;SDS011;43908;53.038;6.666;2022-07-17T04:20:48;5.45;;;2.78;;
58095;SDS011;43908;53.038;6.666;2022-07-17T04:23:14;5.53;;;2.78;;
58095;SDS011;43908;53.038;6.666;2022-07-17T04:25:41;3.90;;;2.60;;
58095;SDS011;43908;53.038;6.666;2022-07-17T04:28:06;4.28;;;2.85;;
58095;SDS011;43908;53.038;6.666;2022-07-17T04:30:33;3.58;;;3.10;;
58095;SDS011;43908;53.038;6.666;2022-07-17T04:32:59;3.90;;;3.00;;
58095;SDS011;43908;53.038;6.666;2022-07-17T04:35:24;3.35;;;3.05;;
58095;SDS011;43908;53.038;6.666;2022-07-17T04:37:50;9.27;;;3.03;;
58095;SDS011;43908;53.038;6.666;2022-07-17T04:40:15;3.67;;;3.08;;
58095;SDS011;43908;53.038;6.666;2022-07-17T04:42:41;5.15;;;3.47;;
58095;SDS011;43908;53.038;6.666;2022-07-17T04:45:07;7.40;;;3.58;;
58095;SDS011;43908;53.038;6.666;2022-07-17T04:47:36;4.90;;;3.25;;
58095;SDS011;43908;53.038;6.666;2022-07-17T04:50:01;7.57;;;3.38;;
58095;SDS011;43908;53.038;6.666;2022-07-17T04:52:27;4.20;;;3.20;;
58095;SDS011;43908;53.038;6.666;2022-07-17T04:54:53;4.53;;;3.35;;
58095;SDS011;43908;53.038;6.666;2022-07-17T04:57:18;4.15;;;3.10;;
58095;SDS011;43908;53.038;6.666;2022-07-17T04:59:44;3.85;;;2.97;;
58095;SDS011;43908;53.038;6.666;2022-07-17T05:02:10;5.50;;;3.30;;
58095;SDS011;43908;53.038;6.666;2022-07-17T05:04:35;3.38;;;2.85;;
58095;SDS011;43908;53.038;6.666;2022-07-17T05:07:01;5.45;;;3.25;;
58095;SDS011;43908;53.038;6.666;2022-07-17T05:09:26;5.55;;;3.53;;
58095;SDS011;43908;53.038;6.666;2022-07-17T05:11:52;8.20;;;4.28;;
58095;SDS011;43908;53.038;6.666;2022-07-17T05:14:17;4.75;;;3.42;;
58095;SDS011;43908;53.038;6.666;2022-07-17T05:16:43;7.05;;;3.50;;
58095;SDS011;43908;53.038;6.666;2022-07-17T05:19:09;6.22;;;3.92;;
58095;SDS011;43908;53.038;6.666;2022-07-17T05:21:34;3.78;;;3.38;;
58095;SDS011;43908;53.038;6.666;2022-07-17T05:24:00;4.45;;;3.28;;
58095;SDS011;43908;53.038;6.666;2022-07-17T05:26:25;6.53;;;3.78;;
58095;SDS011;43908;53.038;6.666;2022-07-17T05:28:51;8.75;;;3.50;;
58095;SDS011;43908;53.038;6.666;2022-07-17T05:31:17;4.75;;;3.20;;
58095;SDS011;43908;53.038;6.666;2022-07-17T05:33:43;4.40;;;3.40;;
58095;SDS011;43908;53.038;6.666;2022-07-17T05:36:08;4.18;;;3.17;;
58095;SDS011;43908;53.038;6.666;2022-07-17T05:38:34;4.93;;;3.22;;
58095;SDS011;43908;53.038;6.666;2022-07-17T05:41:00;5.07;;;2.80;;
58095;SDS011;43908;53.038;6.666;2022-07-17T05:43:25;4.65;;;3.40;;
58095;SDS011;43908;53.038;6.666;2022-07-17T05:45:54;4.97;;;3.03;;
58095;SDS011;43908;53.038;6.666;2022-07-17T05:48:23;7.13;;;3.17;;
58095;SDS011;43908;53.038;6.666;2022-07-17T05:50:50;6.50;;;2.97;;
58095;SDS011;43908;53.038;6.666;2022-07-17T05:53:15;6.18;;;3.00;;
58095;SDS011;43908;53.038;6.666;2022-07-17T05:55:42;6.22;;;3.00;;
58095;SDS011;43908;53.038;6.666;2022-07-17T05:58:07;6.55;;;3.28;;
58095;SDS011;43908;53.038;6.666;2022-07-17T06:00:33;4.10;;;2.67;;
58095;SDS011;43908;53.038;6.666;2022-07-17T06:02:59;4.57;;;2.70;;
58095;SDS011;43908;53.038;6.666;2022-07-17T06:05:25;5.43;;;2.83;;
58095;SDS011;43908;53.038;6.666;2022-07-17T06:07:52;3.47;;;2.50;;
58095;SDS011;43908;53.038;6.666;2022-07-17T06:10:18;5.07;;;2.60;;
58095;SDS011;43908;53.038;6.666;2022-07-17T06:12:44;4.75;;;2.50;;
58095;SDS011;43908;53.038;6.666;2022-07-17T06:15:10;5.72;;;2.30;;
58095;SDS011;43908;53.038;6.666;2022-07-17T06:17:36;6.82;;;2.38;;
58095;SDS011;43908;53.038;6.666;2022-07-17T06:20:02;4.55;;;2.15;;
58095;SDS011;43908;53.038;6.666;2022-07-17T06:22:28;5.05;;;2.17;;
58095;SDS011;43908;53.038;6.666;2022-07-17T06:24:54;3.72;;;1.42;;
58095;SDS011;43908;53.038;6.666;2022-07-17T06:27:20;4.72;;;1.60;;
58095;SDS011;43908;53.038;6.666;2022-07-17T06:29:45;3.58;;;1.58;;
58095;SDS011;43908;53.038;6.666;2022-07-17T06:32:12;3.67;;;1.75;;
58095;SDS011;43908;53.038;6.666;2022-07-17T06:34:38;3.40;;;1.45;;
58095;SDS011;43908;53.038;6.666;2022-07-17T06:37:04;3.65;;;1.52;;
58095;SDS011;43908;53.038;6.666;2022-07-17T06:39:29;2.83;;;1.20;;
58095;SDS011;43908;53.038;6.666;2022-07-17T06:41:55;3.72;;;1.50;;
58095;SDS011;43908;53.038;6.666;2022-07-17T06:44:20;2.95;;;1.25;;
58095;SDS011;43908;53.038;6.666;2022-07-17T06:46:46;4.07;;;1.40;;
58095;SDS011;43908;53.038;6.666;2022-07-17T06:49:12;3.60;;;1.20;;
58095;SDS011;43908;53.038;6.666;2022-07-17T06:51:37;3.88;;;1.65;;
58095;SDS011;43908;53.038;6.666;2022-07-17T06:54:03;3.03;;;1.20;;
58095;SDS011;43908;53.038;6.666;2022-07-17T06:56:28;5.45;;;1.25;;
58095;SDS011;43908;53.038;6.666;2022-07-17T06:58:54;4.15;;;1.17;;
58095;SDS011;43908;53.038;6.666;2022-07-17T07:01:19;3.83;;;1.33;;
58095;SDS011;43908;53.038;6.666;2022-07-17T07:03:45;3.35;;;0.90;;
58095;SDS011;43908;53.038;6.666;2022-07-17T07:06:11;4.45;;;1.25;;
58095;SDS011;43908;53.038;6.666;2022-07-17T07:08:36;3.47;;;1.08;;
58095;SDS011;43908;53.038;6.666;2022-07-17T07:11:02;3.95;;;0.98;;
58095;SDS011;43908;53.038;6.666;2022-07-17T07:13:28;4.18;;;1.20;;
58095;SDS011;43908;53.038;6.666;2022-07-17T07:15:54;3.88;;;1.25;;
58095;SDS011;43908;53.038;6.666;2022-07-17T07:18:19;4.30;;;1.30;;
58095;SDS011;43908;53.038;6.666;2022-07-17T07:20:45;3.40;;;1.20;;
58095;SDS011;43908;53.038;6.666;2022-07-17T07:23:11;10.00;;;1.65;;
58095;SDS011;43908;53.038;6.666;2022-07-17T07:25:36;5.20;;;1.30;;
58095;SDS011;43908;53.038;6.666;2022-07-17T07:28:03;2.42;;;0.90;;
58095;SDS011;43908;53.038;6.666;2022-07-17T07:30:29;3.85;;;1.10;;
58095;SDS011;43908;53.038;6.666;2022-07-17T07:32:54;5.93;;;1.10;;
58095;SDS011;43908;53.038;6.666;2022-07-17T07:35:20;4.28;;;1.10;;
58095;SDS011;43908;53.038;6.666;2022-07-17T07:37:45;2.78;;;1.20;;
58095;SDS011;43908;53.038;6.666;2022-07-17T07:40:12;4.43;;;1.35;;
58095;SDS011;43908;53.038;6.666;2022-07-17T07:42:38;2.67;;;0.90;;
58095;SDS011;43908;53.038;6.666;2022-07-17T07:45:03;4.93;;;1.10;;
58095;SDS011;43908;53.038;6.666;2022-07-17T07:47:30;5.00;;;1.20;;
58095;SDS011;43908;53.038;6.666;2022-07-17T07:49:55;4.50;;;1.00;;
58095;SDS011;43908;53.038;6.666;2022-07-17T07:52:21;3.53;;;0.93;;
58095;SDS011;43908;53.038;6.666;2022-07-17T07:54:46;4.35;;;1.30;;
58095;SDS011;43908;53.038;6.666;2022-07-17T07:57:12;3.25;;;0.90;;
58095;SDS011;43908;53.038;6.666;2022-07-17T07:59:37;3.88;;;1.02;;
58095;SDS011;43908;53.038;6.666;2022-07-17T08:02:03;3.70;;;0.93;;
58095;SDS011;43908;53.038;6.666;2022-07-17T08:04:29;4.32;;;1.10;;
58095;SDS011;43908;53.038;6.666;2022-07-17T08:06:55;3.15;;;1.25;;
58095;SDS011;43908;53.038;6.666;2022-07-17T08:09:21;5.93;;;1.23;;
58095;SDS011;43908;53.038;6.666;2022-07-17T08:11:47;5.60;;;1.30;;
58095;SDS011;43908;53.038;6.666;2022-07-17T08:14:12;4.10;;;1.20;;
58095;SDS011;43908;53.038;6.666;2022-07-17T08:16:38;5.07;;;1.00;;
58095;SDS011;43908;53.038;6.666;2022-07-17T08:19:04;2.90;;;1.17;;
58095;SDS011;43908;53.038;6.666;2022-07-17T08:23:57;4.75;;;1.20;;
58095;SDS011;43908;53.038;6.666;2022-07-17T08:26:23;5.40;;;1.60;;
58095;SDS011;43908;53.038;6.666;2022-07-17T08:28:48;5.10;;;1.23;;
58095;SDS011;43908;53.038;6.666;2022-07-17T08:31:14;3.47;;;1.30;;
58095;SDS011;43908;53.038;6.666;2022-07-17T08:33:39;5.22;;;1.08;;
58095;SDS011;43908;53.038;6.666;2022-07-17T08:36:05;4.50;;;1.15;;
58095;SDS011;43908;53.038;6.666;2022-07-17T08:38:31;5.13;;;0.95;;
58095;SDS011;43908;53.038;6.666;2022-07-17T08:40:57;5.45;;;1.20;;
58095;SDS011;43908;53.038;6.666;2022-07-17T08:43:24;6.63;;;1.27;;
58095;SDS011;43908;53.038;6.666;2022-07-17T08:45:49;3.42;;;1.00;;
58095;SDS011;43908;53.038;6.666;2022-07-17T08:48:17;4.07;;;1.10;;
58095;SDS011;43908;53.038;6.666;2022-07-17T08:50:44;2.65;;;0.90;;
58095;SDS011;43908;53.038;6.666;2022-07-17T08:53:11;3.40;;;1.10;;
58095;SDS011;43908;53.038;6.666;2022-07-17T08:55:37;16.65;;;2.05;;
58095;SDS011;43908;53.038;6.666;2022-07-17T08:58:03;4.25;;;1.30;;
58095;SDS011;43908;53.038;6.666;2022-07-17T09:00:31;3.45;;;0.98;;
58095;SDS011;43908;53.038;6.666;2022-07-17T09:05:25;3.20;;;1.00;;
58095;SDS011;43908;53.038;6.666;2022-07-17T09:07:53;3.60;;;1.00;;
58095;SDS011;43908;53.038;6.666;2022-07-17T09:10:18;4.75;;;1.20;;
58095;SDS011;43908;53.038;6.666;2022-07-17T09:13:12;5.93;;;1.02;;
58095;SDS011;43908;53.038;6.666;2022-07-17T09:15:59;3.55;;;1.05;;
58095;SDS011;43908;53.038;6.666;2022-07-17T09:18:46;2.65;;;1.00;;
58095;SDS011;43908;53.038;6.666;2022-07-17T09:21:18;3.63;;;1.15;;
58095;SDS011;43908;53.038;6.666;2022-07-17T09:23:45;1.97;;;0.90;;
58095;SDS011;43908;53.038;6.666;2022-07-17T09:26:11;4.40;;;1.45;;
58095;SDS011;43908;53.038;6.666;2022-07-17T09:28:46;4.28;;;1.15;;
58095;SDS011;43908;53.038;6.666;2022-07-17T09:31:12;4.93;;;1.00;;
58095;SDS011;43908;53.038;6.666;2022-07-17T09:33:48;2.83;;;1.00;;
58095;SDS011;43908;53.038;6.666;2022-07-17T09:36:14;2.53;;;0.90;;
58095;SDS011;43908;53.038;6.666;2022-07-17T09:38:40;3.15;;;0.93;;
58095;SDS011;43908;53.038;6.666;2022-07-17T09:41:14;3.13;;;1.13;;
58095;SDS011;43908;53.038;6.666;2022-07-17T09:43:43;4.55;;;1.00;;
58095;SDS011;43908;53.038;6.666;2022-07-17T09:46:23;4.10;;;1.20;;
58095;SDS011;43908;53.038;6.666;2022-07-17T09:48:52;4.47;;;1.30;;
58095;SDS011;43908;53.038;6.666;2022-07-17T09:53:50;2.85;;;1.15;;
58095;SDS011;43908;53.038;6.666;2022-07-17T09:56:19;3.03;;;1.15;;
58095;SDS011;43908;53.038;6.666;2022-07-17T09:58:51;3.30;;;0.95;;
58095;SDS011;43908;53.038;6.666;2022-07-17T10:01:18;3.28;;;1.00;;
58095;SDS011;43908;53.038;6.666;2022-07-17T10:03:44;4.85;;;1.10;;
58095;SDS011;43908;53.038;6.666;2022-07-17T10:06:14;3.28;;;1.25;;
58095;SDS011;43908;53.038;6.666;2022-07-17T10:08:40;2.83;;;1.10;;
58095;SDS011;43908;53.038;6.666;2022-07-17T10:11:06;3.13;;;1.27;;
58095;SDS011;43908;53.038;6.666;2022-07-17T10:13:34;8.25;;;1.20;;
58095;SDS011;43908;53.038;6.666;2022-07-17T10:18:34;6.32;;;1.20;;
58095;SDS011;43908;53.038;6.666;2022-07-17T10:21:10;5.00;;;1.50;;
58095;SDS011;43908;53.038;6.666;2022-07-17T10:23:36;5.07;;;1.48;;
58095;SDS011;43908;53.038;6.666;2022-07-17T10:26:03;6.60;;;1.38;;
58095;SDS011;43908;53.038;6.666;2022-07-17T10:28:44;5.50;;;1.40;;
58095;SDS011;43908;53.038;6.666;2022-07-17T10:31:24;11.27;;;1.38;;
58095;SDS011;43908;53.038;6.666;2022-07-17T10:34:10;1.90;;;1.30;;
58095;SDS011;43908;53.038;6.666;2022-07-17T10:36:36;5.95;;;1.27;;
58095;SDS011;43908;53.038;6.666;2022-07-17T10:39:37;4.13;;;1.10;;
58095;SDS011;43908;53.038;6.666;2022-07-17T10:44:26;3.13;;;1.60;;
58095;SDS011;43908;53.038;6.666;2022-07-17T10:46:53;5.38;;;1.48;;
58095;SDS011;43908;53.038;6.666;2022-07-17T10:49:19;2.35;;;0.95;;
58095;SDS011;43908;53.038;6.666;2022-07-17T10:51:48;4.45;;;1.50;;
58095;SDS011;43908;53.038;6.666;2022-07-17T10:54:15;3.55;;;1.10;;
58095;SDS011;43908;53.038;6.666;2022-07-17T10:56:42;3.30;;;1.20;;
58095;SDS011;43908;53.038;6.666;2022-07-17T10:59:11;3.95;;;1.25;;
58095;SDS011;43908;53.038;6.666;2022-07-17T11:01:37;4.05;;;1.65;;
58095;SDS011;43908;53.038;6.666;2022-07-17T11:04:03;2.10;;;1.20;;
58095;SDS011;43908;53.038;6.666;2022-07-17T11:09:01;4.38;;;1.23;;
58095;SDS011;43908;53.038;6.666;2022-07-17T11:11:40;2.60;;;1.00;;
58095;SDS011;43908;53.038;6.666;2022-07-17T11:14:19;5.07;;;2.17;;
58095;SDS011;43908;53.038;6.666;2022-07-17T11:16:54;2.08;;;1.10;;
58095;SDS011;43908;53.038;6.666;2022-07-17T11:19:28;2.17;;;1.10;;
58095;SDS011;43908;53.038;6.666;2022-07-17T11:21:59;2.47;;;1.20;;
58095;SDS011;43908;53.038;6.666;2022-07-17T11:24:36;3.17;;;1.15;;
58095;SDS011;43908;53.038;6.666;2022-07-17T11:27:02;3.80;;;1.58;;
58095;SDS011;43908;53.038;6.666;2022-07-17T11:29:28;4.82;;;1.65;;
58095;SDS011;43908;53.038;6.666;2022-07-17T11:31:56;2.97;;;2.00;;
58095;SDS011;43908;53.038;6.666;2022-07-17T11:34:24;4.22;;;1.35;;
58095;SDS011;43908;53.038;6.666;2022-07-17T11:36:50;4.45;;;1.75;;
58095;SDS011;43908;53.038;6.666;2022-07-17T11:39:16;3.40;;;1.40;;
58095;SDS011;43908;53.038;6.666;2022-07-17T11:41:44;3.42;;;1.30;;
58095;SDS011;43908;53.038;6.666;2022-07-17T11:44:15;3.25;;;1.35;;
58095;SDS011;43908;53.038;6.666;2022-07-17T11:46:46;2.38;;;1.33;;
58095;SDS011;43908;53.038;6.666;2022-07-17T11:49:23;2.20;;;1.40;;
58095;SDS011;43908;53.038;6.666;2022-07-17T11:51:51;4.15;;;1.40;;
58095;SDS011;43908;53.038;6.666;2022-07-17T11:54:16;5.28;;;3.40;;
58095;SDS011;43908;53.038;6.666;2022-07-17T11:56:48;3.00;;;1.40;;
58095;SDS011;43908;53.038;6.666;2022-07-17T11:59:27;3.13;;;1.48;;
58095;SDS011;43908;53.038;6.666;2022-07-17T12:01:55;4.18;;;1.70;;
58095;SDS011;43908;53.038;6.666;2022-07-17T12:04:21;5.03;;;1.40;;
58095;SDS011;43908;53.038;6.666;2022-07-17T12:06:57;1.58;;;1.17;;
58095;SDS011;43908;53.038;6.666;2022-07-17T12:09:30;3.33;;;1.52;;
58095;SDS011;43908;53.038;6.666;2022-07-17T12:12:00;3.65;;;1.55;;
58095;SDS011;43908;53.038;6.666;2022-07-17T12:14:26;3.75;;;1.70;;
58095;SDS011;43908;53.038;6.666;2022-07-17T12:16:52;2.92;;;1.80;;
58095;SDS011;43908;53.038;6.666;2022-07-17T12:19:23;4.10;;;2.00;;
58095;SDS011;43908;53.038;6.666;2022-07-17T12:21:51;3.08;;;1.50;;
58095;SDS011;43908;53.038;6.666;2022-07-17T12:24:19;2.67;;;1.55;;
58095;SDS011;43908;53.038;6.666;2022-07-17T12:26:46;3.25;;;1.80;;
58095;SDS011;43908;53.038;6.666;2022-07-17T12:29:12;4.45;;;1.60;;
58095;SDS011;43908;53.038;6.666;2022-07-17T12:31:38;1.77;;;1.50;;
58095;SDS011;43908;53.038;6.666;2022-07-17T12:34:04;2.40;;;1.63;;
58095;SDS011;43908;53.038;6.666;2022-07-17T12:36:29;2.70;;;1.73;;
58095;SDS011;43908;53.038;6.666;2022-07-17T12:38:55;3.08;;;1.30;;
58095;SDS011;43908;53.038;6.666;2022-07-17T12:41:21;3.25;;;1.85;;
58095;SDS011;43908;53.038;6.666;2022-07-17T12:43:46;2.67;;;2.10;;
58095;SDS011;43908;53.038;6.666;2022-07-17T12:46:12;3.08;;;2.10;;
58095;SDS011;43908;53.038;6.666;2022-07-17T12:48:38;3.75;;;2.00;;
58095;SDS011;43908;53.038;6.666;2022-07-17T12:51:05;3.05;;;2.15;;
58095;SDS011;43908;53.038;6.666;2022-07-17T12:53:32;3.92;;;2.40;;
58095;SDS011;43908;53.038;6.666;2022-07-17T12:55:58;3.38;;;2.22;;
58095;SDS011;43908;53.038;6.666;2022-07-17T12:58:23;3.05;;;2.22;;
58095;SDS011;43908;53.038;6.666;2022-07-17T13:00:49;4.28;;;2.45;;
58095;SDS011;43908;53.038;6.666;2022-07-17T13:03:15;4.13;;;2.20;;
58095;SDS011;43908;53.038;6.666;2022-07-17T13:05:41;4.13;;;2.13;;
58095;SDS011;43908;53.038;6.666;2022-07-17T13:08:07;2.92;;;2.30;;
58095;SDS011;43908;53.038;6.666;2022-07-17T13:10:36;3.17;;;2.72;;
58095;SDS011;43908;53.038;6.666;2022-07-17T13:13:02;3.17;;;2.55;;
58095;SDS011;43908;53.038;6.666;2022-07-17T13:15:29;3.67;;;2.30;;
58095;SDS011;43908;53.038;6.666;2022-07-17T13:17:55;4.40;;;2.60;;
58095;SDS011;43908;53.038;6.666;2022-07-17T13:20:20;3.78;;;2.30;;
58095;SDS011;43908;53.038;6.666;2022-07-17T13:22:46;5.13;;;2.33;;
58095;SDS011;43908;53.038;6.666;2022-07-17T13:25:12;5.10;;;2.42;;
58095;SDS011;43908;53.038;6.666;2022-07-17T13:27:37;3.47;;;2.80;;
58095;SDS011;43908;53.038;6.666;2022-07-17T13:30:03;4.78;;;2.70;;
58095;SDS011;43908;53.038;6.666;2022-07-17T13:32:29;2.95;;;2.30;;
58095;SDS011;43908;53.038;6.666;2022-07-17T13:34:54;4.20;;;2.50;;
58095;SDS011;43908;53.038;6.666;2022-07-17T13:37:20;4.18;;;2.45;;
58095;SDS011;43908;53.038;6.666;2022-07-17T13:39:45;4.03;;;2.00;;
58095;SDS011;43908;53.038;6.666;2022-07-17T13:42:11;3.85;;;2.15;;
58095;SDS011;43908;53.038;6.666;2022-07-17T13:44:37;5.70;;;2.60;;
58095;SDS011;43908;53.038;6.666;2022-07-17T13:47:02;2.75;;;2.20;;
58095;SDS011;43908;53.038;6.666;2022-07-17T13:49:28;2.80;;;2.53;;
58095;SDS011;43908;53.038;6.666;2022-07-17T13:51:54;3.60;;;2.40;;
58095;SDS011;43908;53.038;6.666;2022-07-17T13:54:20;2.90;;;2.40;;
58095;SDS011;43908;53.038;6.666;2022-07-17T13:56:46;3.78;;;2.50;;
58095;SDS011;43908;53.038;6.666;2022-07-17T13:59:11;3.33;;;2.50;;
58095;SDS011;43908;53.038;6.666;2022-07-17T14:01:37;4.75;;;2.30;;
58095;SDS011;43908;53.038;6.666;2022-07-17T14:04:02;4.38;;;2.47;;
58095;SDS011;43908;53.038;6.666;2022-07-17T14:06:28;4.07;;;2.25;;
58095;SDS011;43908;53.038;6.666;2022-07-17T14:08:54;4.10;;;2.40;;
58095;SDS011;43908;53.038;6.666;2022-07-17T14:11:19;3.83;;;2.55;;
58095;SDS011;43908;53.038;6.666;2022-07-17T14:13:45;3.50;;;2.85;;
58095;SDS011;43908;53.038;6.666;2022-07-17T14:16:10;5.55;;;2.70;;
58095;SDS011;43908;53.038;6.666;2022-07-17T14:18:36;3.15;;;2.25;;
58095;SDS011;43908;53.038;6.666;2022-07-17T14:21:22;3.92;;;2.63;;
58095;SDS011;43908;53.038;6.666;2022-07-17T14:23:47;2.60;;;2.40;;
58095;SDS011;43908;53.038;6.666;2022-07-17T14:26:13;4.75;;;2.72;;
58095;SDS011;43908;53.038;6.666;2022-07-17T14:28:38;3.85;;;2.60;;
58095;SDS011;43908;53.038;6.666;2022-07-17T14:31:04;3.70;;;2.45;;
58095;SDS011;43908;53.038;6.666;2022-07-17T14:33:30;3.63;;;2.60;;
58095;SDS011;43908;53.038;6.666;2022-07-17T14:35:55;3.67;;;2.50;;
58095;SDS011;43908;53.038;6.666;2022-07-17T14:38:21;4.47;;;2.60;;
58095;SDS011;43908;53.038;6.666;2022-07-17T14:40:46;3.80;;;2.50;;
58095;SDS011;43908;53.038;6.666;2022-07-17T14:43:12;4.07;;;2.80;;
58095;SDS011;43908;53.038;6.666;2022-07-17T14:45:37;4.20;;;2.63;;
58095;SDS011;43908;53.038;6.666;2022-07-17T14:48:03;3.03;;;2.60;;
58095;SDS011;43908;53.038;6.666;2022-07-17T14:50:29;3.20;;;2.90;;
58095;SDS011;43908;53.038;6.666;2022-07-17T14:52:54;3.95;;;2.75;;
58095;SDS011;43908;53.038;6.666;2022-07-17T14:55:20;4.57;;;2.85;;
58095;SDS011;43908;53.038;6.666;2022-07-17T14:57:45;4.13;;;2.70;;
58095;SDS011;43908;53.038;6.666;2022-07-17T15:00:11;3.88;;;2.42;;